Time;durP1;ratioP1;P1;durP2;ratioP2;P2;SDS_P1;SDS_P2;PMS_P1;PMS_P2;Temp;Humidity;BMP_temperature;BMP_pressure;BME280_temperature;BME280_humidity;BME280_pressure;Samples;Min_cycle;Max_cycle;Signal;HPM_P1;HPM_P2
2022/04/18 03:01:56;;;;;;;24.70;13.45;;;7.00;99.90;;;;;;5342523;23;20049;-80
2022/04/18 03:04:21;;;;;;;23.42;13.30;;;6.90;99.90;;;;;;4998264;28;20383;-79
2022/04/18 03:06:47;;;;;;;23.30;14.30;;;6.90;99.90;;;;;;5014527;28;20033;-81
2022/04/18 03:09:15;;;;;;;22.63;13.43;;;6.90;99.90;;;;;;5014570;28;20042;-80
2022/04/18 03:11:40;;;;;;;24.25;14.30;;;6.80;99.90;;;;;;4997491;28;20129;-82
2022/04/18 03:14:06;;;;;;;24.67;13.57;;;6.80;99.90;;;;;;5014451;28;20080;-81
2022/04/18 03:16:32;;;;;;;21.23;13.18;;;6.80;99.90;;;;;;5015242;28;20084;-80
2022/04/18 03:18:58;;;;;;;22.55;13.25;;;6.70;99.90;;;;;;5015439;28;20034;-80
2022/04/18 03:21:24;;;;;;;24.55;13.57;;;6.70;99.90;;;;;;5014436;28;20053;-82
2022/04/18 03:23:49;;;;;;;24.70;14.27;;;6.70;99.90;;;;;;5014105;28;20054;-81
2022/04/18 03:26:15;;;;;;;21.88;13.20;;;6.70;99.90;;;;;;5014262;28;20046;-81
2022/04/18 03:28:41;;;;;;;22.58;13.75;;;6.60;99.90;;;;;;5014488;28;20370;-82
2022/04/18 03:31:07;;;;;;;22.42;13.32;;;6.60;99.90;;;;;;5013993;28;20072;-81
2022/04/18 03:33:33;;;;;;;23.38;13.18;;;6.60;99.90;;;;;;5014657;28;20041;-81
2022/04/18 03:41:26;;;;;;;21.98;13.55;;;6.50;99.90;;;;;;5014061;28;20046;-80
2022/04/18 03:43:52;;;;;;;23.00;14.30;;;6.50;99.90;;;;;;5014289;28;20041;-82
2022/04/18 03:46:18;;;;;;;21.50;13.68;;;6.40;99.90;;;;;;5016057;28;20041;-82
2022/04/18 03:48:43;;;;;;;24.27;13.45;;;6.40;99.90;;;;;;5013847;28;20398;-81
2022/04/18 03:51:09;;;;;;;24.58;13.95;;;6.40;99.90;;;;;;5013156;28;20038;-79
2022/04/18 03:53:34;;;;;;;20.38;13.27;;;6.40;99.90;;;;;;5013691;28;20042;-81
2022/04/18 03:56:00;;;;;;;22.17;13.82;;;6.30;99.90;;;;;;5013498;28;20049;-79
2022/04/18 03:58:26;;;;;;;21.05;13.32;;;6.30;99.90;;;;;;5013293;28;20038;-82
2022/04/18 04:00:52;;;;;;;22.77;14.10;;;6.30;99.90;;;;;;5014248;28;20381;-80
2022/04/18 04:03:17;;;;;;;22.60;13.18;;;6.30;99.90;;;;;;5012998;28;20045;-79
2022/04/18 04:05:43;;;;;;;22.80;13.75;;;6.30;99.90;;;;;;5014245;28;20477;-79
2022/04/18 04:08:08;;;;;;;21.90;12.85;;;6.20;99.90;;;;;;5014593;28;20042;-78
2022/04/18 04:10:34;;;;;;;21.80;13.05;;;6.20;99.90;;;;;;5015418;28;20045;-80
2022/04/18 04:13:00;;;;;;;24.35;15.02;;;6.20;99.90;;;;;;5014830;28;20390;-80
2022/04/18 04:15:26;;;;;;;23.45;14.13;;;6.10;99.90;;;;;;4997526;28;20426;-79
2022/04/18 04:17:51;;;;;;;23.45;14.82;;;6.10;99.90;;;;;;4997937;28;20038;-80
2022/04/18 04:20:17;;;;;;;25.80;14.65;;;6.10;99.90;;;;;;4997515;28;20052;-79
2022/04/18 04:22:48;;;;;;;23.50;13.45;;;6.10;99.90;;;;;;5014203;28;20049;-80
2022/04/18 04:25:15;;;;;;;25.25;14.82;;;6.10;99.90;;;;;;5014239;28;20407;-80
2022/04/18 04:27:41;;;;;;;23.23;13.68;;;6.10;99.90;;;;;;5013031;28;20074;-81
2022/04/18 04:30:07;;;;;;;22.88;13.85;;;6.00;99.90;;;;;;5013595;28;20073;-80
2022/04/18 04:32:33;;;;;;;22.63;13.30;;;6.00;99.90;;;;;;5013287;28;20069;-81
2022/04/18 04:34:59;;;;;;;22.70;13.88;;;6.00;99.90;;;;;;4998088;28;20087;-81
2022/04/18 04:37:24;;;;;;;22.65;13.48;;;6.00;99.90;;;;;;5012664;28;20478;-78
2022/04/18 04:39:50;;;;;;;23.38;13.80;;;6.00;99.90;;;;;;5013398;28;20046;-80
2022/04/18 04:42:17;;;;;;;22.83;14.32;;;6.00;99.90;;;;;;5013669;28;20402;-81
2022/04/18 04:44:43;;;;;;;24.95;14.35;;;6.00;99.90;;;;;;5015316;28;20389;-79
2022/04/18 04:47:09;;;;;;;24.95;14.25;;;6.00;99.90;;;;;;5014722;28;20117;-81
2022/04/18 04:49:34;;;;;;;24.48;14.25;;;6.00;99.90;;;;;;5015135;28;20085;-82
2022/04/18 04:52:00;;;;;;;24.20;13.35;;;6.00;99.90;;;;;;4997620;28;20486;-78
2022/04/18 04:54:26;;;;;;;25.80;14.43;;;6.00;99.90;;;;;;5013553;28;20034;-80
2022/04/18 04:56:51;;;;;;;22.30;14.07;;;6.00;99.90;;;;;;5015176;28;20034;-79
2022/04/18 04:59:17;;;;;;;21.08;12.77;;;5.90;99.90;;;;;;5012683;28;20493;-79
2022/04/18 05:01:42;;;;;;;22.38;13.50;;;5.90;99.90;;;;;;5013005;28;20056;-80
2022/04/18 05:04:09;;;;;;;24.95;14.27;;;6.00;99.90;;;;;;5015126;28;20117;-82
2022/04/18 05:06:34;;;;;;;24.45;13.32;;;5.90;99.90;;;;;;5013303;28;20219;-81
2022/04/18 05:09:00;;;;;;;21.65;13.20;;;5.90;99.90;;;;;;5014366;28;20099;-80
2022/04/18 05:11:26;;;;;;;23.10;13.63;;;5.90;99.90;;;;;;5013396;28;20127;-79
2022/04/18 05:13:52;;;;;;;23.45;13.70;;;5.90;99.90;;;;;;5013191;28;20042;-80
2022/04/18 05:16:17;;;;;;;21.15;13.05;;;5.90;99.90;;;;;;5014398;28;20034;-79
2022/04/18 05:18:43;;;;;;;21.08;13.50;;;6.00;99.90;;;;;;5014236;28;20037;-81
2022/04/18 05:21:09;;;;;;;22.73;14.15;;;5.90;99.90;;;;;;5012690;28;20042;-79
2022/04/18 05:23:35;;;;;;;25.00;13.60;;;5.90;99.90;;;;;;5012336;28;20058;-80
2022/04/18 05:26:00;;;;;;;25.23;14.52;;;6.00;99.90;;;;;;5012716;28;20042;-79
2022/04/18 05:28:26;;;;;;;22.88;13.02;;;6.00;99.90;;;;;;5014460;28;20376;-80
2022/04/18 05:30:52;;;;;;;23.58;13.52;;;6.00;99.90;;;;;;5012980;28;20379;-82
2022/04/18 05:33:18;;;;;;;24.58;13.77;;;6.00;99.90;;;;;;5013045;28;20042;-80
2022/04/18 05:35:43;;;;;;;23.80;14.80;;;6.00;99.90;;;;;;5017141;28;20462;-82
2022/04/18 05:38:09;;;;;;;25.17;13.75;;;6.10;99.90;;;;;;5016705;28;20121;-80
2022/04/18 05:40:35;;;;;;;23.90;13.40;;;6.10;99.90;;;;;;5016322;28;20050;-82
2022/04/18 05:43:03;;;;;;;23.88;13.80;;;6.10;99.90;;;;;;5017305;28;20052;-78
2022/04/18 05:45:29;;;;;;;22.40;13.32;;;6.20;99.90;;;;;;5017053;28;20486;-79
2022/04/18 05:47:54;;;;;;;22.58;14.07;;;6.20;99.90;;;;;;5016050;28;20203;-81
2022/04/18 05:50:20;;;;;;;23.52;13.70;;;6.30;99.90;;;;;;5016237;28;20042;-81
2022/04/18 05:52:47;;;;;;;22.60;14.55;;;6.30;99.90;;;;;;5017810;28;20040;-81
2022/04/18 05:55:13;;;;;;;23.42;13.75;;;6.30;99.90;;;;;;5016239;28;20492;-79
2022/04/18 05:57:38;;;;;;;27.40;14.20;;;6.30;99.90;;;;;;5016495;28;20078;-79
2022/04/18 06:00:05;;;;;;;22.05;13.70;;;6.40;99.90;;;;;;5016036;28;20093;-80
2022/04/18 06:02:31;;;;;;;22.75;13.57;;;6.40;99.90;;;;;;5015546;28;20049;-79
2022/04/18 06:04:56;;;;;;;24.15;13.88;;;6.50;99.90;;;;;;4999479;28;20037;-80
2022/04/18 06:07:22;;;;;;;21.48;13.80;;;6.60;99.90;;;;;;5015855;28;20046;-79
2022/04/18 06:09:47;;;;;;;24.70;14.07;;;6.60;99.90;;;;;;5015901;28;20042;-81
2022/04/18 06:12:13;;;;;;;25.05;14.48;;;6.70;99.90;;;;;;5016895;28;20034;-80
2022/04/18 06:14:39;;;;;;;23.92;13.70;;;6.80;99.90;;;;;;5015799;28;20096;-82
2022/04/18 06:17:05;;;;;;;24.92;13.13;;;6.80;99.90;;;;;;5016784;28;20045;-81
2022/04/18 06:19:30;;;;;;;23.63;13.80;;;6.90;99.90;;;;;;5016619;28;20056;-79
2022/04/18 06:21:56;;;;;;;25.73;13.75;;;7.00;99.90;;;;;;5018182;28;20044;-81
2022/04/18 06:24:22;;;;;;;22.33;13.32;;;7.00;99.90;;;;;;5016737;28;20085;-81
2022/04/18 06:26:47;;;;;;;19.80;12.45;;;7.10;99.90;;;;;;5016543;28;20038;-82
2022/04/18 06:29:13;;;;;;;22.65;12.68;;;7.20;99.90;;;;;;5016367;28;20046;-80
2022/04/18 06:31:39;;;;;;;21.80;13.00;;;7.30;99.90;;;;;;5015253;28;20107;-81
2022/04/18 06:34:05;;;;;;;24.08;14.52;;;7.40;99.90;;;;;;5016381;28;20489;-81
2022/04/18 06:36:30;;;;;;;23.95;13.65;;;7.50;99.90;;;;;;5016412;28;20121;-82
2022/04/18 06:38:56;;;;;;;19.42;12.95;;;7.50;99.90;;;;;;5016842;28;20049;-81
2022/04/18 06:41:21;;;;;;;25.20;13.55;;;7.70;99.90;;;;;;5018128;28;20042;-81
2022/04/18 06:43:47;;;;;;;22.25;13.18;;;7.80;99.90;;;;;;5016356;28;20371;-82
2022/04/18 06:46:12;;;;;;;21.92;12.85;;;7.90;99.90;;;;;;5017805;28;20042;-80
2022/04/18 06:48:38;;;;;;;20.02;12.15;;;8.00;99.90;;;;;;5016619;28;20382;-80
2022/04/18 06:51:04;;;;;;;20.52;12.75;;;8.10;99.90;;;;;;5001039;28;20168;-82
2022/04/18 06:53:29;;;;;;;23.63;12.50;;;8.20;99.90;;;;;;5014890;28;20397;-82
2022/04/18 06:58:39;;;;;;;20.55;12.20;;;8.40;99.90;;;;;;5016185;28;20446;-78
2022/04/18 07:01:05;;;;;;;18.80;11.85;;;8.50;99.90;;;;;;5016011;28;20100;-80
2022/04/18 07:03:31;;;;;;;22.15;12.85;;;8.70;99.90;;;;;;5025505;28;20065;-78
2022/04/18 07:05:56;;;;;;;21.83;11.95;;;8.80;99.90;;;;;;5030111;28;20058;-80
2022/04/18 07:08:22;;;;;;;16.48;11.05;;;8.90;99.90;;;;;;5019835;28;20054;-79
2022/04/18 07:10:48;;;;;;;20.33;11.48;;;9.00;99.90;;;;;;5016408;28;20089;-82
2022/04/18 07:13:13;;;;;;;19.70;11.20;;;9.10;99.90;;;;;;5018026;28;20045;-80
2022/04/18 07:15:39;;;;;;;18.13;10.82;;;9.20;99.90;;;;;;5016169;28;20129;-81
2022/04/18 07:18:06;;;;;;;18.30;10.95;;;9.30;99.90;;;;;;5015987;28;20053;-82
2022/04/18 07:20:31;;;;;;;22.77;11.82;;;9.40;99.90;;;;;;5016801;28;20069;-78
2022/04/18 07:22:57;;;;;;;17.60;10.63;;;9.50;99.90;;;;;;5014764;28;20038;-81
2022/04/18 07:25:23;;;;;;;15.25;9.93;;;9.60;99.90;;;;;;5015436;28;20126;-79
2022/04/18 07:27:48;;;;;;;14.70;10.00;;;9.70;99.90;;;;;;5017019;28;20046;-82
2022/04/18 07:30:14;;;;;;;17.23;10.10;;;9.80;99.90;;;;;;5015822;28;20081;-82
2022/04/18 07:32:43;;;;;;;16.42;10.95;;;9.90;99.90;;;;;;5016816;28;20482;-82
2022/04/18 07:35:10;;;;;;;16.58;9.25;;;9.90;99.90;;;;;;5015403;28;20064;-79
2022/04/18 07:37:36;;;;;;;16.83;10.02;;;10.10;99.90;;;;;;5015447;28;20026;-79
2022/04/18 07:40:02;;;;;;;15.80;9.82;;;10.20;99.90;;;;;;5014999;28;20073;-80
2022/04/18 07:42:28;;;;;;;19.15;10.13;;;10.30;99.90;;;;;;5015196;28;20045;-80
2022/04/18 07:44:54;;;;;;;17.30;10.57;;;10.40;99.90;;;;;;4997932;28;20501;-78
2022/04/18 07:47:20;;;;;;;15.23;9.57;;;10.40;99.90;;;;;;5016613;28;20421;-82
2022/04/18 07:49:45;;;;;;;16.45;9.25;;;10.50;99.90;;;;;;5015111;28;20046;-81
2022/04/18 07:52:12;;;;;;;14.85;9.95;;;10.60;99.90;;;;;;5015147;28;20095;-81
2022/04/18 07:54:38;;;;;;;13.60;8.65;;;10.70;99.90;;;;;;5015319;28;20137;-81
2022/04/18 07:57:05;;;;;;;15.65;9.13;;;10.80;99.90;;;;;;5014459;28;20430;-81
2022/04/18 07:59:31;;;;;;;16.85;9.93;;;10.90;99.90;;;;;;5016563;28;20124;-80
2022/04/18 08:01:57;;;;;;;15.77;9.32;;;11.10;99.90;;;;;;5014675;28;20113;-80
2022/04/18 08:04:23;;;;;;;15.18;8.98;;;11.20;99.70;;;;;;5016018;28;20045;-81
2022/04/18 08:06:48;;;;;;;13.43;8.52;;;11.20;98.20;;;;;;5016403;28;20076;-79
2022/04/18 08:09:14;;;;;;;17.30;9.15;;;11.30;97.90;;;;;;4997508;28;20092;-80
2022/04/18 08:11:39;;;;;;;12.20;8.88;;;11.40;98.00;;;;;;5014664;28;20482;-79
2022/04/18 08:14:05;;;;;;;12.45;8.63;;;11.50;97.50;;;;;;5012792;28;20041;-81
2022/04/18 08:16:31;;;;;;;14.20;9.02;;;11.50;98.00;;;;;;5012989;28;20394;-82
2022/04/18 08:18:56;;;;;;;14.40;9.00;;;11.70;98.10;;;;;;5013006;28;20192;-80
2022/04/18 08:21:22;;;;;;;15.60;9.43;;;11.80;98.00;;;;;;5012811;28;20045;-80
2022/04/18 08:23:50;;;;;;;15.13;9.00;;;11.80;97.30;;;;;;5012920;28;20038;-80
2022/04/18 08:26:17;;;;;;;15.43;9.60;;;11.90;96.40;;;;;;4996812;28;20053;-82
2022/04/18 08:28:42;;;;;;;14.60;9.27;;;12.00;95.50;;;;;;4996276;28;20034;-80
2022/04/18 08:31:09;;;;;;;16.00;9.57;;;12.10;96.10;;;;;;5012753;28;20038;-78
2022/04/18 08:33:35;;;;;;;13.27;8.82;;;12.40;96.20;;;;;;5013201;28;20556;-80
2022/04/18 08:36:01;;;;;;;14.13;8.88;;;13.10;95.40;;;;;;5013958;28;20038;-82
2022/04/18 08:38:27;;;;;;;18.05;8.88;;;13.80;93.60;;;;;;5015580;28;20106;-82
2022/04/18 08:40:57;;;;;;;15.73;9.13;;;14.50;91.40;;;;;;5013325;28;20041;-81
2022/04/18 08:43:22;;;;;;;16.60;9.38;;;15.20;88.30;;;;;;5013654;28;20035;-80
2022/04/18 08:45:49;;;;;;;14.50;9.10;;;15.60;82.20;;;;;;5013403;28;20046;-81
2022/04/18 08:53:48;;;;;;;14.13;8.38;;;16.50;74.00;;;;;;5013404;28;20046;-80
2022/04/18 08:56:14;;;;;;;13.27;8.35;;;16.50;72.20;;;;;;5014979;28;20057;-81
2022/04/18 08:58:40;;;;;;;15.00;9.13;;;16.40;71.00;;;;;;5013332;28;20073;-80
2022/04/18 09:01:07;;;;;;;14.02;8.80;;;16.00;72.10;;;;;;5014437;28;20038;-81
2022/04/18 09:03:33;;;;;;;11.77;8.80;;;15.70;73.50;;;;;;5012884;28;20038;-80
2022/04/18 09:06:04;;;;;;;15.93;8.57;;;16.00;73.10;;;;;;5013113;28;20042;-82
2022/04/18 09:08:34;;;;;;;12.77;8.40;;;16.40;70.60;;;;;;5013455;28;20042;-81
2022/04/18 09:10:59;;;;;;;15.35;8.43;;;16.50;69.50;;;;;;4999505;28;20401;-78
2022/04/18 09:13:25;;;;;;;12.40;8.40;;;16.80;70.00;;;;;;5016339;28;20038;-80
2022/04/18 09:15:51;;;;;;;11.57;7.93;;;17.00;69.60;;;;;;5016975;28;20128;-80
2022/04/18 09:18:22;;;;;;;14.27;8.13;;;17.20;69.30;;;;;;5019057;28;20069;-80
2022/04/18 09:20:51;;;;;;;12.30;8.75;;;17.30;66.00;;;;;;5017395;28;20129;-81
2022/04/18 09:23:25;;;;;;;14.75;8.40;;;17.20;67.20;;;;;;5019224;28;20398;-80
2022/04/18 09:25:53;;;;;;;12.32;7.70;;;17.10;69.30;;;;;;5019011;28;20382;-82
2022/04/18 09:28:25;;;;;;;14.15;7.60;;;16.70;66.50;;;;;;5001420;28;20486;-81
2022/04/18 09:31:19;;;;;;;11.18;7.15;;;16.40;66.00;;;;;;5019303;28;20112;-81
2022/04/18 09:33:55;;;;;;;12.38;7.68;;;16.20;64.90;;;;;;5016995;28;20054;-81
2022/04/18 09:36:21;;;;;;;;;;;16.20;66.90;;;;;;5017798;28;20046;-80
2022/04/18 09:38:56;;;;;;;10.30;6.78;;;16.20;65.00;;;;;;5017471;28;19968;-81
2022/04/18 09:41:24;;;;;;;12.50;8.20;;;16.30;65.70;;;;;;5017563;28;20046;-80
2022/04/18 09:43:52;;;;;;;11.68;7.30;;;16.40;65.90;;;;;;5017204;28;20451;-81
2022/04/18 09:46:18;;;;;;;14.10;7.53;;;16.60;66.40;;;;;;5017138;28;20474;-81
2022/04/18 09:48:45;;;;;;;12.90;7.72;;;16.80;65.10;;;;;;5015830;28;20048;-81
2022/04/18 09:51:16;;;;;;;12.25;7.50;;;16.90;65.10;;;;;;5017751;28;20121;-82
2022/04/18 09:53:45;;;;;;;10.63;6.82;;;17.10;64.10;;;;;;5016330;28;20038;-80
2022/04/18 09:56:16;;;;;;;11.55;7.90;;;17.30;63.40;;;;;;5016279;28;20371;-79
2022/04/18 09:58:42;;;;;;;10.20;6.93;;;17.50;63.10;;;;;;5016156;28;20109;-78
2022/04/18 10:01:08;;;;;;;12.80;7.60;;;17.70;63.60;;;;;;5015746;28;20041;-79
2022/04/18 10:03:35;;;;;;;12.48;7.07;;;17.80;63.70;;;;;;5015333;28;20046;-78
2022/04/18 10:06:02;;;;;;;8.63;5.68;;;17.90;61.90;;;;;;5015675;28;20500;-81
2022/04/18 10:08:28;;;;;;;11.23;7.18;;;18.00;60.70;;;;;;5017375;28;20049;-79
2022/04/18 10:10:57;;;;;;;11.93;6.90;;;17.90;60.70;;;;;;5015905;28;20125;-80
2022/04/18 10:13:23;;;;;;;8.75;5.85;;;18.10;63.70;;;;;;5016553;28;20030;-81
2022/04/18 10:15:51;;;;;;;12.25;7.28;;;18.30;61.40;;;;;;5017069;28;20080;-81
2022/04/18 10:18:17;;;;;;;9.65;5.72;;;18.40;61.10;;;;;;5016870;28;20034;-80
2022/04/18 10:21:09;;;;;;;10.30;5.72;;;18.50;59.70;;;;;;4998640;28;20100;-80
2022/04/18 10:24:04;;;;;;;9.32;6.05;;;18.60;61.80;;;;;;5008483;28;20053;-79
2022/04/18 10:26:51;;;;;;;22.50;6.90;;;18.70;59.90;;;;;;5015121;28;20422;-80
2022/04/18 10:29:32;;;;;;;9.48;5.82;;;18.80;60.60;;;;;;5015504;28;20053;-78
2022/04/18 10:32:03;;;;;;;9.10;5.18;;;18.90;58.20;;;;;;5015441;28;20148;-81
2022/04/18 10:34:31;;;;;;;7.82;4.80;;;19.10;57.90;;;;;;5015184;28;20038;-81
2022/04/18 10:37:00;;;;;;;8.85;4.78;;;19.10;55.90;;;;;;5016611;28;20044;-78
2022/04/18 10:39:34;;;;;;;5.30;3.05;;;19.10;53.00;;;;;;5014711;28;20081;-77
2022/04/18 10:42:22;;;;;;;5.38;3.55;;;19.10;51.60;;;;;;5015201;28;20041;-78
2022/04/18 10:44:58;;;;;;;4.07;3.05;;;19.20;51.40;;;;;;5015025;28;20532;-82
2022/04/18 10:47:23;;;;;;;4.68;3.45;;;19.30;51.10;;;;;;4998730;28;20048;-82
2022/04/18 10:50:18;;;;;;;6.35;4.18;;;19.30;50.60;;;;;;5015394;28;20050;-81
2022/04/18 10:53:09;;;;;;;5.57;3.50;;;19.30;48.60;;;;;;5014621;28;20041;-82
2022/04/18 10:55:35;;;;;;;6.65;3.63;;;19.40;47.00;;;;;;5015385;28;20100;-80
2022/04/18 10:58:15;;;;;;;5.85;3.88;;;19.50;47.20;;;;;;5014794;28;20038;-82
2022/04/18 11:00:54;;;;;;;6.28;3.67;;;19.70;47.70;;;;;;5015824;28;20108;-81
2022/04/18 11:03:38;;;;;;;5.68;3.67;;;19.70;46.50;;;;;;5014479;28;20128;-81
2022/04/18 11:06:32;;;;;;;5.93;3.50;;;19.90;47.10;;;;;;5014470;28;20041;-79
2022/04/18 11:09:01;;;;;;;6.13;3.70;;;20.10;46.60;;;;;;4997773;28;20042;-81
2022/04/18 11:12:05;;;;;;;6.47;3.92;;;19.90;45.50;;;;;;4997913;28;20390;-79
2022/04/18 11:14:49;;;;;;;5.30;3.92;;;20.10;46.60;;;;;;5002532;28;20110;-81
2022/04/18 11:17:32;;;;;;;5.65;4.03;;;20.10;46.60;;;;;;5015229;28;20177;-81
2022/04/18 11:20:33;;;;;;;5.65;3.65;;;20.30;45.40;;;;;;5014569;28;20093;-80
2022/04/18 11:23:17;;;;;;;5.95;3.97;;;20.50;45.10;;;;;;5014432;28;20509;-79
2022/04/18 11:25:48;;;;;;;5.68;3.75;;;20.30;45.10;;;;;;5013828;28;20129;-80
2022/04/18 11:28:16;;;;;;;5.30;3.75;;;20.30;45.00;;;;;;5014090;28;20049;-81
2022/04/18 11:30:41;;;;;;;6.78;3.75;;;20.40;45.00;;;;;;5014194;28;20041;-79
2022/04/18 11:33:07;;;;;;;6.93;3.88;;;20.50;45.00;;;;;;5013176;28;20045;-82
2022/04/18 11:35:33;;;;;;;6.95;4.35;;;20.60;45.40;;;;;;5015783;28;20042;-81
2022/04/18 11:38:07;;;;;;;4.97;3.60;;;20.90;45.80;;;;;;5014042;28;20046;-81
2022/04/18 11:40:39;;;;;;;7.15;3.80;;;21.20;44.90;;;;;;4998057;28;20041;-82
2022/04/18 11:43:12;;;;;;;5.95;3.92;;;21.00;44.70;;;;;;4998057;28;20402;-82
2022/04/18 11:45:38;;;;;;;6.03;3.47;;;20.90;42.00;;;;;;5015745;28;20172;-82
2022/04/18 11:48:04;;;;;;;5.80;3.58;;;20.90;42.00;;;;;;5014401;28;20073;-81
2022/04/18 11:50:32;;;;;;;5.25;3.75;;;21.10;44.00;;;;;;5015562;28;20042;-82
2022/04/18 11:53:06;;;;;;;4.78;2.92;;;21.50;44.70;;;;;;5013771;28;20120;-81
2022/04/18 11:55:44;;;;;;;6.25;3.40;;;21.60;43.60;;;;;;5015324;28;20049;-83
2022/04/18 11:58:11;;;;;;;4.97;3.25;;;21.70;42.00;;;;;;5014348;28;20034;-81
2022/04/18 12:09:02;;;;;;;3.90;2.80;;;22.10;41.80;;;;;;5014955;28;20037;-83
2022/04/18 12:11:34;;;;;;;7.35;3.35;;;22.30;42.30;;;;;;5014177;28;20091;-81
2022/04/18 12:13:59;;;;;;;4.70;2.83;;;22.50;41.50;;;;;;5013978;28;20033;-82
2022/04/18 12:16:25;;;;;;;5.00;2.88;;;22.50;42.30;;;;;;5013606;28;20060;-80
2022/04/18 12:18:55;;;;;;;4.18;2.72;;;22.50;41.80;;;;;;5013872;28;20042;-80
2022/04/18 12:21:22;;;;;;;6.72;2.75;;;22.70;42.60;;;;;;5013558;28;20073;-80
2022/04/18 12:23:58;;;;;;;5.47;2.67;;;22.60;41.40;;;;;;5014818;28;20033;-81
2022/04/18 12:26:35;;;;;;;7.05;2.75;;;22.60;41.30;;;;;;5014341;28;20030;-81
2022/04/18 12:29:12;;;;;;;5.38;2.53;;;22.70;41.20;;;;;;5013605;28;20042;-82
2022/04/18 12:31:39;;;;;;;5.32;2.60;;;22.80;40.90;;;;;;5014541;28;20044;-81
2022/04/18 12:34:05;;;;;;;5.65;2.80;;;22.70;40.20;;;;;;5016314;28;20041;-76
2022/04/18 12:36:35;;;;;;;5.07;2.67;;;22.80;40.90;;;;;;5024718;28;20102;-76
2022/04/18 12:39:03;;;;;;;5.28;2.60;;;22.80;40.20;;;;;;5025816;28;20041;-79
2022/04/18 12:41:32;;;;;;;6.30;2.80;;;22.90;40.20;;;;;;5019513;28;20052;-82
2022/04/18 12:43:58;;;;;;;3.45;2.30;;;22.90;39.70;;;;;;5017857;28;20132;-80
2022/04/18 12:46:33;;;;;;;3.85;2.63;;;23.00;39.50;;;;;;5019752;28;20493;-81
2022/04/18 12:49:06;;;;;;;;;;;23.00;39.70;;;;;;5002048;28;20037;-80
2022/04/18 12:51:38;;;;;;;7.05;3.05;;;22.90;39.30;;;;;;5017688;28;19963;-80
2022/04/18 12:54:05;;;;;;;5.50;2.70;;;23.00;39.00;;;;;;5000960;28;20041;-80
2022/04/18 12:56:33;;;;;;;5.18;2.80;;;23.10;39.00;;;;;;5017079;28;20037;-81
2022/04/18 12:59:06;;;;;;;5.80;3.20;;;23.10;38.60;;;;;;5016588;28;20053;-82
2022/04/18 13:01:37;;;;;;;7.03;3.25;;;23.10;39.70;;;;;;5016604;28;20120;-80
2022/04/18 13:04:05;;;;;;;4.88;2.60;;;23.00;39.70;;;;;;5001598;28;20077;-82
2022/04/18 13:06:32;;;;;;;4.72;2.70;;;23.10;38.60;;;;;;5017448;28;20120;-80
2022/04/18 13:09:06;;;;;;;4.68;3.38;;;22.90;38.60;;;;;;5016776;28;20056;-82
2022/04/18 13:11:45;;;;;;;5.43;2.92;;;22.70;38.00;;;;;;5016456;28;20044;-79
2022/04/18 13:14:12;;;;;;;4.25;2.75;;;23.10;38.60;;;;;;5017809;28;20494;-81
2022/04/18 13:16:39;;;;;;;4.60;3.15;;;23.30;38.60;;;;;;5017867;28;20051;-81
2022/04/18 13:19:14;;;;;;;3.70;2.50;;;23.30;37.30;;;;;;5017809;28;20046;-81
2022/04/18 13:21:41;;;;;;;4.17;2.87;;;23.00;37.40;;;;;;5016682;28;20470;-81
2022/04/18 13:24:08;;;;;;;4.05;2.95;;;22.90;37.70;;;;;;5016536;28;20048;-80
2022/04/18 13:26:36;;;;;;;4.65;2.83;;;22.90;38.00;;;;;;5016315;28;20469;-80
2022/04/18 13:29:02;;;;;;;5.10;2.95;;;23.20;37.70;;;;;;5017986;28;20080;-79
2022/04/18 13:31:28;;;;;;;5.32;3.13;;;22.90;37.60;;;;;;5016272;28;20108;-81
2022/04/18 13:33:54;;;;;;;4.32;3.15;;;23.10;37.90;;;;;;5016518;28;20048;-82
2022/04/18 13:36:33;;;;;;;5.05;3.30;;;23.00;37.60;;;;;;5016361;28;20057;-81
2022/04/18 13:39:11;;;;;;;4.55;3.15;;;23.00;37.60;;;;;;5016332;28;20042;-81
2022/04/18 13:41:39;;;;;;;5.20;3.40;;;23.20;38.20;;;;;;4999616;28;20037;-82
2022/04/18 13:44:05;;;;;;;4.78;3.08;;;23.50;38.80;;;;;;5017206;28;20506;-82
2022/04/18 13:46:32;;;;;;;5.10;3.70;;;23.60;38.20;;;;;;5017224;28;20037;-78
2022/04/18 13:48:58;;;;;;;5.70;3.35;;;23.70;38.20;;;;;;5015811;28;20520;-81
2022/04/18 13:51:25;;;;;;;6.03;3.33;;;23.80;37.80;;;;;;5015866;28;20038;-80
2022/04/18 13:53:57;;;;;;;5.07;3.53;;;24.10;38.10;;;;;;5015953;28;20038;-81
2022/04/18 13:56:25;;;;;;;4.78;3.40;;;24.10;38.10;;;;;;4998961;28;20044;-82
2022/04/18 13:58:51;;;;;;;5.05;3.33;;;24.10;38.50;;;;;;5017350;28;20493;-79
2022/04/18 14:01:17;;;;;;;4.22;3.38;;;24.10;38.10;;;;;;4999858;28;20049;-82
2022/04/18 14:03:43;;;;;;;5.90;3.50;;;24.20;38.50;;;;;;5015640;28;20045;-82
2022/04/18 14:06:09;;;;;;;4.70;3.40;;;24.40;38.70;;;;;;5016918;28;20048;-79
2022/04/18 14:08:36;;;;;;;4.78;3.63;;;24.10;38.40;;;;;;5016013;28;20505;-82
2022/04/18 14:11:02;;;;;;;4.75;3.55;;;24.10;38.60;;;;;;5015174;28;20046;-81
2022/04/18 14:13:28;;;;;;;6.55;3.67;;;24.50;38.90;;;;;;5015377;28;20119;-78
2022/04/18 14:21:25;;;;;;;7.57;3.35;;;24.70;38.40;;;;;;5015671;28;20089;-79
2022/04/18 14:23:50;;;;;;;6.45;3.90;;;24.80;38.60;;;;;;5016351;28;20457;-83
2022/04/18 14:26:16;;;;;;;6.38;3.80;;;24.70;38.50;;;;;;5015534;28;20129;-79
2022/04/18 14:28:42;;;;;;;7.32;3.78;;;24.80;39.00;;;;;;5014943;28;20363;-81
2022/04/18 14:31:08;;;;;;;4.53;3.40;;;24.70;38.50;;;;;;5016550;28;20042;-83
2022/04/18 14:33:34;;;;;;;4.93;3.17;;;24.70;37.70;;;;;;5015465;28;20030;-79
2022/04/18 14:36:00;;;;;;;5.47;3.20;;;24.60;37.70;;;;;;5016292;28;20038;-80
2022/04/18 14:38:27;;;;;;;4.57;3.38;;;24.70;37.70;;;;;;5016646;28;20034;-81
2022/04/18 14:40:52;;;;;;;4.65;3.60;;;24.80;38.00;;;;;;5015176;28;20121;-82
2022/04/18 14:43:18;;;;;;;4.55;3.40;;;24.60;37.50;;;;;;5015659;28;20544;-82
2022/04/18 14:45:44;;;;;;;7.97;3.40;;;24.80;37.30;;;;;;5015273;28;20120;-81
2022/04/18 14:48:10;;;;;;;4.75;3.10;;;24.70;37.20;;;;;;5015216;28;20042;-80
2022/04/18 14:50:35;;;;;;;6.25;3.10;;;24.70;37.90;;;;;;5016031;28;20037;-81
2022/04/18 14:53:01;;;;;;;5.32;3.45;;;24.70;38.10;;;;;;5016482;28;20041;-82
2022/04/18 14:55:27;;;;;;;6.22;3.90;;;24.70;37.50;;;;;;5015058;28;20040;-81
2022/04/18 14:57:52;;;;;;;4.45;3.35;;;24.50;37.20;;;;;;5015002;28;20387;-83
2022/04/18 15:00:18;;;;;;;4.10;3.10;;;24.40;37.10;;;;;;5014978;28;20157;-82
2022/04/18 15:02:44;;;;;;;4.20;3.33;;;24.50;37.20;;;;;;5014710;28;20040;-81
2022/04/18 15:05:10;;;;;;;5.93;3.35;;;24.10;37.10;;;;;;5014658;28;20042;-81
2022/04/18 15:07:36;;;;;;;5.32;3.47;;;24.00;37.10;;;;;;4998680;28;20053;-81
2022/04/18 15:10:03;;;;;;;5.93;3.25;;;24.10;37.00;;;;;;5014388;28;20543;-81
2022/04/18 15:12:29;;;;;;;5.18;3.35;;;24.10;37.40;;;;;;5014667;28;20046;-79
2022/04/18 15:14:55;;;;;;;5.72;3.35;;;24.10;37.50;;;;;;5013981;28;20586;-80
2022/04/18 15:17:21;;;;;;;6.10;3.63;;;24.20;37.60;;;;;;5014863;28;20034;-79
2022/04/18 15:19:48;;;;;;;4.25;3.28;;;24.50;37.80;;;;;;4997857;28;20502;-81
2022/04/18 15:22:14;;;;;;;4.80;3.40;;;24.70;37.50;;;;;;5015891;28;20048;-81
2022/04/18 15:24:40;;;;;;;5.80;3.78;;;24.90;37.60;;;;;;5015702;28;20041;-81
2022/04/18 15:27:06;;;;;;;4.43;3.38;;;25.00;37.20;;;;;;5014328;28;20128;-82
2022/04/18 15:29:34;;;;;;;3.85;3.30;;;24.80;37.30;;;;;;5013822;28;20068;-81
2022/04/18 15:32:06;;;;;;;5.03;3.30;;;24.50;36.40;;;;;;5013966;28;20117;-81
2022/04/18 15:34:33;;;;;;;4.97;3.45;;;24.50;36.70;;;;;;5014599;28;20082;-82
2022/04/18 15:37:20;;;;;;;7.68;2.97;;;24.40;36.60;;;;;;5014425;28;20046;-83
2022/04/18 15:39:46;;;;;;;4.43;3.33;;;24.60;37.30;;;;;;5014172;28;20049;-82
2022/04/18 15:42:11;;;;;;;5.50;3.22;;;24.80;37.20;;;;;;5014059;28;20087;-84
2022/04/18 15:44:37;;;;;;;6.95;3.72;;;24.80;37.50;;;;;;4997775;28;20042;-80
2022/04/18 15:47:03;;;;;;;4.93;3.40;;;24.80;37.80;;;;;;5013340;28;20045;-81
2022/04/18 15:49:29;;;;;;;5.32;3.13;;;24.70;38.00;;;;;;4997971;28;20050;-82
2022/04/18 15:51:56;;;;;;;5.38;3.70;;;24.80;38.40;;;;;;4997348;28;20490;-79
2022/04/18 15:54:22;;;;;;;6.68;3.53;;;24.70;37.80;;;;;;5015380;28;20108;-79
2022/04/18 15:56:49;;;;;;;5.97;3.33;;;24.70;37.80;;;;;;5013289;28;20038;-81
2022/04/18 15:59:15;;;;;;;6.57;3.20;;;24.70;38.80;;;;;;5013727;28;20506;-82
2022/04/18 16:01:42;;;;;;;6.15;3.60;;;24.90;38.90;;;;;;5014032;28;20052;-82
2022/04/18 16:04:07;;;;;;;5.53;3.53;;;24.90;38.00;;;;;;5013637;28;20042;-81
2022/04/18 16:06:34;;;;;;;4.78;3.63;;;24.80;37.90;;;;;;5014002;28;20045;-82
2022/04/18 16:09:00;;;;;;;8.23;3.92;;;24.70;38.30;;;;;;4997294;28;20084;-83
2022/04/18 16:11:25;;;;;;;4.32;3.40;;;24.90;37.70;;;;;;5015266;28;20061;-82
2022/04/18 16:13:51;;;;;;;4.88;3.67;;;25.00;37.80;;;;;;5015120;28;20041;-81